Time,TemperatureF,DewpointF,PressureIn,WindDirection,WindDirectionDegrees,WindSpeedMPH,WindSpeedGustMPH,Humidity,HourlyPrecipIn,Conditions,Clouds,dailyrainin,SoftwareType,DateUTC
2013-11-27 00:22:00,18.0,8.0,-100.00,NW,310,6.0,9.0,65,0.00,,,-99.99,,2013-11-27 06:22:00,
2013-11-27 00:32:00,18.0,8.0,-100.00,NW,310,6.0,9.0,65,0.00,,,-99.99,,2013-11-27 06:32:00,
2013-11-27 00:42:00,18.0,8.0,-100.00,NW,310,6.0,9.0,65,0.00,,,-99.99,,2013-11-27 06:42:00,
2013-11-27 01:52:00,17.0,8.0,-100.00,NW,310,6.0,10.0,68,0.00,,,-99.99,,2013-11-27 07:52:00,
2013-11-27 02:02:00,17.0,8.0,-100.00,NW,310,6.0,10.0,68,0.00,,,-99.99,,2013-11-27 08:02:00,
2013-11-27 02:21:00,16.0,8.0,-100.00,NW,315,7.0,10.0,69,0.00,,,-99.99,,2013-11-27 08:21:00,
2013-11-27 02:32:00,16.0,8.0,-100.00,NW,315,7.0,10.0,69,0.00,,,-99.99,,2013-11-27 08:32:00,
2013-11-27 02:43:00,16.0,8.0,-100.00,NW,315,7.0,10.0,69,0.00,,,-99.99,,2013-11-27 08:43:00,
2013-11-27 03:43:00,16.0,8.0,-100.00,NW,320,6.0,9.0,71,0.00,,,-99.99,,2013-11-27 09:43:00,
2013-11-27 03:54:00,16.0,8.0,-100.00,NW,320,6.0,9.0,71,0.00,,,-99.99,,2013-11-27 09:54:00,
2013-11-27 04:13:00,15.0,8.0,-100.00,NW,305,6.0,9.0,72,0.00,,,-99.99,,2013-11-27 10:13:00,
2013-11-27 04:23:00,15.0,8.0,-100.00,NW,305,6.0,9.0,72,0.00,,,-99.99,,2013-11-27 10:23:00,
2013-11-27 04:33:00,15.0,8.0,-100.00,NW,305,6.0,9.0,72,0.00,,,-99.99,,2013-11-27 10:33:00,
2013-11-27 04:42:00,15.0,8.0,-100.00,NW,305,6.0,9.0,72,0.00,,,-99.99,,2013-11-27 10:42:00,
2013-11-27 08:42:00,13.0,8.0,-100.00,NW,305,6.0,9.0,78,0.00,,,-99.99,,2013-11-27 14:42:00,
2013-11-27 11:22:00,21.0,9.0,-100.00,WNW,285,7.0,12.0,58,0.00,,,-99.99,,2013-11-27 17:22:00,
2013-11-27 11:33:00,21.0,9.0,-100.00,WNW,285,7.0,12.0,58,0.00,,,-99.99,,2013-11-27 17:33:00,
2013-11-27 13:12:00,28.0,9.0,-100.00,West,275,5.0,9.0,44,0.00,,,-99.99,,2013-11-27 19:12:00,
2013-11-27 13:22:00,28.0,9.0,-100.00,West,275,5.0,9.0,44,0.00,,,-99.99,,2013-11-27 19:22:00,
2013-11-27 13:32:00,28.0,9.0,-100.00,West,275,5.0,9.0,44,0.00,,,-99.99,,2013-11-27 19:32:00,
2013-11-27 16:23:00,29.0,5.0,-100.00,SSW,210,6.0,9.0,36,0.00,,,-99.99,,2013-11-27 22:23:00,
2013-11-27 16:33:00,29.0,5.0,-100.00,SSW,210,6.0,9.0,36,0.00,,,-99.99,,2013-11-27 22:33:00,
2013-11-27 16:43:00,29.0,5.0,-100.00,SSW,210,6.0,9.0,36,0.00,,,-99.99,,2013-11-27 22:43:00,
2013-11-27 16:51:00,26.0,5.0,-100.00,SSW,200,4.0,6.0,39,0.00,,,-99.99,,2013-11-27 22:51:00,
2013-11-27 17:42:00,26.0,5.0,-100.00,SSW,200,4.0,6.0,39,0.00,,,-99.99,,2013-11-27 23:42:00,
2013-11-27 18:12:00,24.0,5.0,-100.00,SE,140,4.0,5.0,43,0.00,,,-99.99,,2013-11-28 00:12:00,
2013-11-27 18:22:00,24.0,5.0,-100.00,SE,140,4.0,5.0,43,0.00,,,-99.99,,2013-11-28 00:22:00,
2013-11-27 18:32:00,24.0,5.0,-100.00,SE,140,4.0,5.0,43,0.00,,,-99.99,,2013-11-28 00:32:00,
2013-11-27 18:42:00,24.0,5.0,-100.00,SE,140,4.0,5.0,43,0.00,,,-99.99,,2013-11-28 00:42:00,
2013-11-27 20:12:00,24.0,7.0,-100.00,SSE,150,2.0,4.0,48,0.00,,,-99.99,,2013-11-28 02:12:00,
2013-11-27 20:52:00,24.0,8.0,-100.00,SSE,155,7.0,11.0,49,0.00,,,-99.99,,2013-11-28 02:52:00,
2013-11-27 21:02:00,24.0,8.0,-100.00,SSE,155,7.0,11.0,49,0.00,,,-99.99,,2013-11-28 03:02:00,
2013-11-27 21:53:00,25.0,9.0,-100.00,SE,135,4.0,10.0,51,0.00,,,-99.99,,2013-11-28 03:53:00,
2013-11-27 22:04:00,25.0,9.0,-100.00,SE,135,4.0,10.0,51,0.00,,,-99.99,,2013-11-28 04:04:00,
2013-11-27 22:12:00,25.0,9.0,-100.00,SE,135,4.0,10.0,51,0.00,,,-99.99,,2013-11-28 04:12:00,
2013-11-27 22:23:00,25.0,9.0,-100.00,SE,135,4.0,10.0,51,0.00,,,-99.99,,2013-11-28 04:23:00,